Time;durP1;ratioP1;P1;durP2;ratioP2;P2;SDS_P1;SDS_P2;PMS_P1;PMS_P2;Temp;Humidity;BMP_temperature;BMP_pressure;BME280_temperature;BME280_humidity;BME280_pressure;Samples;Min_cycle;Max_cycle;Signal;HPM_P1;HPM_P2
2023/11/26 00:01:41;;;;;;;54.40;31.80;;;;;;;0.17;70.12;97627.51;107311;1254;60181;-38
2023/11/26 00:04:09;;;;;;;57.30;32.60;;;;;;;0.20;70.24;97628.51;107341;1254;60318;-38
2023/11/26 00:06:41;;;;;;;56.00;33.20;;;;;;;0.22;70.63;97629.09;107379;1254;73836;-38
2023/11/26 00:09:10;;;;;;;59.30;33.30;;;;;;;0.24;70.56;97637.99;107335;1254;67290;-38
2023/11/26 00:11:38;;;;;;;42.20;24.60;;;;;;;0.25;70.41;97644.02;107304;1254;72816;-38
2023/11/26 00:14:05;;;;;;;56.40;33.10;;;;;;;0.25;70.38;97635.25;107339;1254;60413;-38
2023/11/26 00:16:37;;;;;;;53.70;32.70;;;;;;;0.23;70.33;97637.98;107331;1254;60391;-38
2023/11/26 00:19:05;;;;;;;59.90;33.60;;;;;;;0.20;70.15;97633.61;107398;1254;73907;-38
2023/11/26 00:21:32;;;;;;;54.00;32.50;;;;;;;0.20;70.28;97633.45;107307;1254;67612;-38
2023/11/26 00:24:00;;;;;;;56.10;33.80;;;;;;;0.18;70.44;97629.37;107332;1254;72662;-38
2023/11/26 00:26:27;;;;;;;55.10;32.30;;;;;;;0.16;70.21;97629.83;107345;1257;59961;-38
2023/11/26 00:28:58;;;;;;;54.10;32.00;;;;;;;0.20;70.17;97628.27;107335;1253;60462;-38
2023/11/26 00:31:25;;;;;;;48.50;30.90;;;;;;;0.27;69.89;97629.56;107300;1254;73864;-38
2023/11/26 00:33:53;;;;;;;51.20;31.10;;;;;;;0.29;69.58;97633.59;107284;1254;67675;-39
2023/11/26 00:36:21;;;;;;;48.60;31.60;;;;;;;0.27;69.73;97629.34;107353;1254;72648;-39
2023/11/26 00:38:49;;;;;;;47.10;30.90;;;;;;;0.27;69.87;97621.26;107351;1258;60408;-37
2023/11/26 00:41:16;;;;;;;50.60;30.90;;;;;;;0.27;69.55;97623.10;107324;1254;60628;-37
2023/11/26 00:43:44;;;;;;;46.30;29.10;;;;;;;0.24;69.55;97626.80;107270;1255;73878;-38
2023/11/26 00:46:11;;;;;;;50.10;30.30;;;;;;;0.22;69.56;97634.42;107401;1254;67659;-38
2023/11/26 00:48:39;;;;;;;51.70;30.70;;;;;;;0.18;69.60;97633.57;107402;1254;73003;-38
2023/11/26 00:51:06;;;;;;;47.60;29.00;;;;;;;0.15;69.46;97631.69;107462;1254;60539;-38
2023/11/26 00:53:34;;;;;;;49.50;30.40;;;;;;;0.11;69.40;97632.85;107462;1253;60293;-38
2023/11/26 00:56:06;;;;;;;53.40;29.90;;;;;;;0.04;69.30;97629.36;107506;1254;73871;-38
2023/11/26 00:58:33;;;;;;;50.90;28.90;;;;;;;-0.03;69.23;97626.87;107490;1254;66626;-38
2023/11/26 01:01:01;;;;;;;50.20;29.20;;;;;;;-0.12;69.26;97621.71;107463;1254;72685;-38
2023/11/26 01:03:28;;;;;;;49.00;27.70;;;;;;;-0.12;69.27;97612.41;107452;1254;60416;-38
2023/11/26 01:05:57;;;;;;;46.00;28.70;;;;;;;-0.04;69.21;97605.91;107417;1254;60177;-38
2023/11/26 01:08:25;;;;;;;43.40;25.40;;;;;;;-0.00;69.34;97600.02;107475;1253;73904;-38
2023/11/26 01:10:52;;;;;;;49.20;28.30;;;;;;;-0.01;69.10;97600.52;107442;1258;67698;-38
2023/11/26 01:13:20;;;;;;;45.10;27.20;;;;;;;-0.05;69.02;97596.75;107401;1253;72675;-38
2023/11/26 01:15:47;;;;;;;54.50;30.40;;;;;;;-0.07;69.17;97596.75;107484;1253;60374;-38
2023/11/26 01:18:15;;;;;;;48.00;28.50;;;;;;;-0.10;69.06;97589.95;107460;1254;60385;-38
2023/11/26 01:20:44;;;;;;;47.60;26.40;;;;;;;-0.13;68.95;97588.95;107434;1253;72645;-38
2023/11/26 01:23:11;;;;;;;52.90;27.10;;;;;;;-0.17;69.00;97589.35;107472;1253;67571;-38
2023/11/26 01:25:39;;;;;;;46.30;25.80;;;;;;;-0.23;68.65;97586.03;107484;1254;71638;-38
2023/11/26 01:28:07;;;;;;;49.00;26.30;;;;;;;-0.28;68.59;97577.80;107477;1258;60561;-38
2023/11/26 01:30:34;;;;;;;43.90;25.10;;;;;;;-0.32;69.00;97574.92;107445;1259;59308;-38
2023/11/26 01:33:02;;;;;;;40.60;24.60;;;;;;;-0.35;69.07;97579.70;107480;1254;72669;-38
2023/11/26 01:35:29;;;;;;;38.70;24.80;;;;;;;-0.37;69.28;97581.06;107491;1253;65802;-38
2023/11/26 01:37:58;;;;;;;39.50;23.00;;;;;;;-0.40;69.45;97578.57;107494;1254;70416;-39
2023/11/26 01:40:26;;;;;;;37.90;20.60;;;;;;;-0.36;69.58;97581.14;107458;1254;60866;-38
2023/11/26 01:42:53;;;;;;;40.20;21.40;;;;;;;-0.26;69.32;97575.74;107481;1253;60440;-38
2023/11/26 01:45:21;;;;;;;35.90;21.40;;;;;;;-0.23;69.57;97573.41;107461;1254;72565;-38
2023/11/26 01:47:49;;;;;;;42.10;21.50;;;;;;;-0.23;69.65;97571.59;107479;1254;66395;-38
2023/11/26 01:50:20;;;;;;;36.50;21.10;;;;;;;-0.23;69.59;97571.21;107348;1259;72692;-38
2023/11/26 01:52:53;;;;;;;39.90;23.60;;;;;;;-0.21;69.51;97575.36;107444;1253;60339;-38
2023/11/26 01:55:21;;;;;;;38.40;24.60;;;;;;;-0.24;69.67;97570.04;107535;1258;59562;-38
2023/11/26 01:57:49;;;;;;;39.50;25.80;;;;;;;-0.27;69.94;97571.23;107366;1252;73470;-38
2023/11/26 02:00:17;;;;;;;43.60;28.40;;;;;;;-0.31;69.91;97567.14;106586;1253;1003550;-38
2023/11/26 02:02:46;;;;;;;;;;;;;;;-0.36;70.27;97561.20;107403;1253;71458;-39
2023/11/26 02:05:14;;;;;;;47.10;29.60;;;;;;;-0.43;70.17;97561.43;107354;1254;60463;-38
2023/11/26 02:07:42;;;;;;;48.20;28.40;;;;;;;-0.50;70.60;97563.11;107366;1254;60513;-38
2023/11/26 02:10:09;;;;;;;45.10;29.70;;;;;;;-0.50;70.64;97564.88;107263;1254;73877;-38
2023/11/26 02:12:37;;;;;;;40.30;27.90;;;;;;;-0.43;70.69;97565.06;107474;1253;67898;-38
2023/11/26 02:15:06;;;;;;;39.80;26.10;;;;;;;-0.40;71.04;97556.18;107450;1254;71399;-38
2023/11/26 02:17:35;;;;;;;46.40;27.70;;;;;;;-0.42;70.98;97556.22;107509;1254;60367;-38
2023/11/26 02:20:04;;;;;;;42.00;27.90;;;;;;;-0.43;71.42;97562.17;107479;1254;60538;-38
2023/11/26 02:22:32;;;;;;;50.40;29.40;;;;;;;-0.46;71.33;97563.78;107500;1257;72599;-38
2023/11/26 02:25:00;;;;;;;46.90;29.40;;;;;;;-0.46;71.46;97559.96;107435;1253;66428;-38
2023/11/26 02:27:28;;;;;;;42.80;26.60;;;;;;;-0.48;71.79;97553.59;107332;1254;71444;-38
2023/11/26 02:29:56;;;;;;;46.60;26.20;;;;;;;-0.48;71.72;97551.30;107381;1254;60309;-38
2023/11/26 02:32:23;;;;;;;39.30;24.80;;;;;;;-0.49;71.75;97544.60;107375;1254;60426;-38
2023/11/26 02:34:51;;;;;;;39.60;23.60;;;;;;;-0.49;72.09;97537.05;107473;1256;73833;-38
2023/11/26 02:37:18;;;;;;;34.60;22.10;;;;;;;-0.42;72.08;97536.21;107457;1253;67717;-38
2023/11/26 02:39:46;;;;;;;35.80;21.80;;;;;;;-0.30;72.16;97534.31;107469;1253;72423;-38
2023/11/26 02:42:13;;;;;;;34.80;21.00;;;;;;;-0.24;72.25;97537.00;107325;1256;60412;-38
2023/11/26 02:44:42;;;;;;;33.50;21.00;;;;;;;-0.22;72.41;97537.69;107436;1253;60129;-38
2023/11/26 02:47:09;;;;;;;34.30;20.60;;;;;;;-0.19;72.36;97535.27;107465;1253;72990;-38
2023/11/26 02:49:37;;;;;;;34.40;20.80;;;;;;;-0.16;72.36;97536.58;107370;1253;67567;-38
2023/11/26 02:52:05;;;;;;;34.90;19.50;;;;;;;-0.16;72.25;97534.55;107488;1254;71384;-38
2023/11/26 02:54:33;;;;;;;35.50;20.10;;;;;;;-0.18;72.49;97530.80;107479;1254;60531;-38
2023/11/26 02:57:01;;;;;;;32.10;18.70;;;;;;;-0.20;72.74;97531.88;107498;1253;60506;-38
2023/11/26 02:59:28;;;;;;;34.70;17.90;;;;;;;-0.16;72.64;97531.85;107337;1251;74471;-38
2023/11/26 03:01:59;;;;;;;36.40;20.90;;;;;;;-0.08;72.60;97530.89;107683;1255;67583;-38
2023/11/26 03:04:27;;;;;;;34.10;20.90;;;;;;;-0.05;72.24;97528.09;107661;1254;72726;-38
2023/11/26 03:06:57;;;;;;;35.60;21.70;;;;;;;-0.04;72.16;97526.98;107516;1254;60469;-38
2023/11/26 03:14:53;;;;;;;41.40;24.00;;;;;;;-0.07;71.49;97523.33;107485;1254;66051;-38
2023/11/26 03:17:20;;;;;;;41.50;25.10;;;;;;;-0.11;71.29;97526.23;107496;1254;72736;-38
2023/11/26 03:19:48;;;;;;;40.10;25.50;;;;;;;-0.14;71.18;97529.49;107440;1253;60445;-38
2023/11/26 03:22:17;;;;;;;42.40;25.40;;;;;;;-0.20;71.10;97526.41;107331;1254;60423;-38
2023/11/26 03:24:45;;;;;;;29.80;18.70;;;;;;;-0.26;71.07;97518.78;107384;1252;73864;-38
2023/11/26 03:27:12;;;;;;;41.70;24.10;;;;;;;-0.24;71.08;97519.35;107336;1253;66373;-38
2023/11/26 03:29:40;;;;;;;40.50;24.70;;;;;;;-0.20;70.98;97514.38;107366;1252;72742;-38
2023/11/26 03:32:09;;;;;;;41.30;24.90;;;;;;;-0.21;70.78;97510.92;107469;1253;60519;-38
2023/11/26 03:34:37;;;;;;;39.70;25.30;;;;;;;-0.25;71.27;97504.81;107463;1253;60447;-38
2023/11/26 03:37:04;;;;;;;43.50;24.40;;;;;;;-0.27;71.28;97504.88;107477;1253;72596;-38
2023/11/26 03:39:40;;;;;;;44.70;26.10;;;;;;;-0.26;71.47;97500.43;106747;1253;1003109;-38
2023/11/26 03:42:08;;;;;;;40.30;24.80;;;;;;;-0.24;71.46;97499.95;107489;1254;71383;-38
2023/11/26 03:44:49;;;;;;;41.50;24.40;;;;;;;-0.25;71.67;97505.34;107487;1254;60430;-38
2023/11/26 03:47:18;;;;;;;40.70;24.40;;;;;;;-0.26;72.01;97500.88;107361;1253;60267;-38
2023/11/26 03:49:47;;;;;;;37.70;22.00;;;;;;;-0.21;72.26;97500.05;107378;1253;73838;-37
2023/11/26 03:52:15;;;;;;;35.70;22.70;;;;;;;-0.11;72.19;97502.26;107396;1253;66623;-38
2023/11/26 03:54:42;;;;;;;40.10;23.90;;;;;;;-0.08;72.09;97517.49;107401;1254;73031;-38
2023/11/26 03:57:11;;;;;;;39.70;23.70;;;;;;;-0.15;72.17;97534.62;107281;1256;60467;-38
2023/11/26 03:59:42;;;;;;;39.40;23.60;;;;;;;-0.20;72.47;97538.73;107441;1253;60374;-38
2023/11/26 04:02:10;;;;;;;40.10;23.60;;;;;;;-0.19;72.81;97542.63;107362;1254;73927;-38
2023/11/26 04:04:38;;;;;;;40.50;22.80;;;;;;;-0.18;73.08;97544.17;106796;1257;1003763;-38
2023/11/26 04:07:07;;;;;;;37.90;22.80;;;;;;;-0.15;73.13;97543.83;107456;1258;72750;-38
2023/11/26 04:09:35;;;;;;;27.70;16.60;;;;;;;-0.08;73.01;97542.02;107467;1254;60492;-38
2023/11/26 04:12:03;;;;;;;37.50;21.20;;;;;;;0.06;72.80;97546.52;107503;1252;60336;-38
2023/11/26 04:14:34;;;;;;;35.40;22.30;;;;;;;0.14;73.29;97553.77;107456;1253;73896;-38
2023/11/26 04:17:03;;;;;;;33.50;20.60;;;;;;;0.16;73.27;97555.06;107512;1253;67586;-38
2023/11/26 04:19:31;;;;;;;35.20;20.20;;;;;;;0.20;73.29;97557.68;107462;1254;71684;-38
2023/11/26 04:21:58;;;;;;;40.40;21.40;;;;;;;0.22;73.18;97554.48;107476;1253;60394;-38
2023/11/26 04:24:26;;;;;;;33.10;20.40;;;;;;;0.21;72.83;97549.26;107503;1258;60351;-38
2023/11/26 04:26:55;;;;;;;35.50;21.40;;;;;;;0.18;72.93;97545.30;107479;1253;73835;-37
2023/11/26 04:29:22;;;;;;;39.80;21.90;;;;;;;0.17;73.08;97539.19;107454;1253;67319;-38
2023/11/26 04:31:50;;;;;;;32.00;19.00;;;;;;;0.23;73.07;97533.48;107418;1254;72704;-38
2023/11/26 04:34:18;;;;;;;30.60;19.20;;;;;;;0.28;72.84;97532.80;107463;1254;60537;-38
2023/11/26 04:36:45;;;;;;;31.50;19.60;;;;;;;0.28;72.83;97534.42;107453;1253;60320;-38
2023/11/26 04:39:13;;;;;;;35.70;21.70;;;;;;;0.21;73.03;97520.83;107478;1253;73953;-38
2023/11/26 04:41:41;;;;;;;34.20;21.50;;;;;;;0.26;73.00;97526.66;107484;1253;67779;-38
2023/11/26 04:44:08;;;;;;;34.00;20.00;;;;;;;0.26;72.97;97518.05;107467;1253;71715;-38
2023/11/26 04:46:36;;;;;;;34.40;22.20;;;;;;;0.24;72.91;97514.95;107455;1254;60451;-38
2023/11/26 04:49:03;;;;;;;31.10;21.20;;;;;;;0.18;72.78;97517.42;107191;1252;195317;-38
2023/11/26 04:52:50;;;;;;;33.80;20.10;;;;;;;0.15;72.93;97526.95;104361;1290;600064;-37
2023/11/26 04:55:19;;;;;;;32.70;19.90;;;;;;;0.17;72.67;97525.10;106659;1266;61057;-36
2023/11/26 04:57:48;;;;;;;24.60;15.60;;;;;;;0.22;72.68;97528.90;106754;1263;60002;-37
2023/11/26 05:00:15;;;;;;;29.90;19.40;;;;;;;0.22;72.88;97533.27;106696;1263;71997;-37
2023/11/26 05:02:43;;;;;;;32.40;20.10;;;;;;;0.24;72.77;97531.39;106770;1263;67647;-37
2023/11/26 05:05:11;;;;;;;37.50;19.40;;;;;;;0.23;72.77;97527.10;106732;1263;72655;-37
2023/11/26 05:07:39;;;;;;;30.30;18.10;;;;;;;0.21;72.90;97531.61;106833;1257;185845;-38
2023/11/26 05:10:07;;;;;;;29.60;17.60;;;;;;;0.18;72.97;97530.55;107062;1257;59234;-38
2023/11/26 05:12:35;;;;;;;29.50;16.50;;;;;;;0.12;72.88;97531.05;107080;1257;72199;-38
2023/11/26 05:15:04;;;;;;;24.10;17.00;;;;;;;0.12;73.09;97527.99;105531;1257;1016573;-38
2023/11/26 05:17:32;;;;;;;27.20;15.10;;;;;;;0.17;73.17;97528.22;106983;1257;72655;-38
2023/11/26 05:19:59;;;;;;;24.70;15.40;;;;;;;0.13;73.24;97525.45;107015;1257;59516;-38
2023/11/26 05:22:28;;;;;;;30.30;16.70;;;;;;;0.10;73.59;97527.55;107075;1257;59996;-38
2023/11/26 05:24:55;;;;;;;27.60;17.20;;;;;;;0.12;73.83;97527.83;107056;1263;72068;-38
2023/11/26 05:27:23;;;;;;;28.50;16.70;;;;;;;0.14;73.91;97527.37;107057;1258;68031;-38
2023/11/26 05:29:51;;;;;;;32.80;18.20;;;;;;;0.15;74.07;97528.39;107054;1260;71454;-38
2023/11/26 05:32:19;;;;;;;28.80;16.90;;;;;;;0.12;73.94;97525.87;107081;1257;59655;-38
2023/11/26 05:34:47;;;;;;;28.50;16.50;;;;;;;0.10;74.06;97527.86;107038;1260;59515;-37
2023/11/26 05:37:15;;;;;;;27.00;16.30;;;;;;;0.18;74.01;97527.55;107134;1257;71782;-37
2023/11/26 05:39:42;;;;;;;29.20;17.40;;;;;;;0.29;73.78;97529.51;107099;1263;68071;-37
2023/11/26 05:42:10;;;;;;;27.80;17.40;;;;;;;0.35;73.73;97526.38;107045;1260;72641;-38
2023/11/26 05:44:38;;;;;;;29.10;17.20;;;;;;;0.35;73.52;97526.02;107052;1257;59415;-37
2023/11/26 05:47:05;;;;;;;31.20;19.10;;;;;;;0.33;73.51;97525.81;107078;1257;60024;-37
2023/11/26 05:49:33;;;;;;;28.30;16.80;;;;;;;0.30;73.33;97523.44;107079;1257;72925;-38
2023/11/26 05:52:00;;;;;;;25.50;18.20;;;;;;;0.25;73.50;97519.24;107043;1259;67924;-37
2023/11/26 05:54:28;;;;;;;32.30;18.00;;;;;;;0.22;73.54;97517.19;107049;1260;71506;-38
2023/11/26 05:56:56;;;;;;;25.30;15.90;;;;;;;0.18;73.52;97518.29;107036;1260;60784;-37
2023/11/26 05:59:23;;;;;;;25.60;16.10;;;;;;;0.22;73.63;97521.98;107047;1260;59574;-37
2023/11/26 06:01:50;;;;;;;25.40;15.70;;;;;;;0.25;73.56;97520.47;107079;1259;73300;-38
2023/11/26 06:04:18;;;;;;;22.50;14.60;;;;;;;0.25;73.81;97527.69;107054;1259;67823;-37
2023/11/26 06:06:46;;;;;;;26.10;15.90;;;;;;;0.23;73.92;97531.14;106928;1260;72532;-38
2023/11/26 06:09:14;;;;;;;22.70;14.90;;;;;;;0.18;73.97;97531.46;106925;1260;59505;-37
2023/11/26 06:11:42;;;;;;;27.00;15.60;;;;;;;0.17;74.29;97535.37;106906;1260;59983;-38
2023/11/26 06:14:09;;;;;;;23.20;15.80;;;;;;;0.15;74.47;97537.30;106923;1260;73104;-37
2023/11/26 06:16:37;;;;;;;25.00;14.90;;;;;;;0.15;74.55;97539.97;106936;1260;68079;-37
2023/11/26 06:19:05;;;;;;;23.40;14.50;;;;;;;0.22;74.29;97539.55;106924;1260;72649;-37
2023/11/26 06:21:32;;;;;;;22.00;14.10;;;;;;;0.28;74.40;97536.93;106964;1260;59632;-38
2023/11/26 06:24:00;;;;;;;25.30;14.50;;;;;;;0.29;74.38;97536.88;107054;1260;59684;-37
2023/11/26 06:26:28;;;;;;;22.40;15.00;;;;;;;0.30;74.72;97540.71;107075;1260;73035;-38
2023/11/26 06:28:58;;;;;;;24.20;15.10;;;;;;;0.32;74.68;97540.95;107042;1259;67574;-37
2023/11/26 06:31:25;;;;;;;22.10;14.90;;;;;;;0.33;74.80;97537.31;107078;1260;72748;-38
2023/11/26 06:33:53;;;;;;;26.10;15.00;;;;;;;0.36;74.78;97531.82;107031;1260;59640;-37
2023/11/26 06:36:24;;;;;;;25.00;14.70;;;;;;;0.35;74.59;97535.05;107040;1260;60209;-38
2023/11/26 06:38:52;;;;;;;20.20;13.00;;;;;;;0.38;74.64;97533.04;107000;1260;71876;-38
2023/11/26 06:41:31;;;;;;;21.90;13.90;;;;;;;0.45;74.35;97525.69;107029;1260;67564;-38
2023/11/26 06:44:02;;;;;;;19.60;12.70;;;;;;;0.46;74.44;97528.29;104817;1260;1003609;-38
2023/11/26 06:46:29;;;;;;;21.70;13.40;;;;;;;0.43;74.55;97520.77;107036;1260;59598;-38
2023/11/26 06:48:57;;;;;;;20.50;13.50;;;;;;;0.42;74.58;97517.75;107061;1260;59752;-38
2023/11/26 06:51:24;;;;;;;19.60;13.10;;;;;;;0.43;74.69;97513.45;107044;1264;71831;-38
2023/11/26 06:53:52;;;;;;;21.40;13.40;;;;;;;0.41;74.91;97516.66;107069;1259;66278;-38
2023/11/26 06:56:20;;;;;;;20.40;11.70;;;;;;;0.40;74.87;97513.05;106997;1260;72645;-38
2023/11/26 06:58:47;;;;;;;18.80;11.50;;;;;;;0.46;74.59;97507.11;106954;1263;59611;-38
2023/11/26 07:01:15;;;;;;;16.10;11.60;;;;;;;0.46;74.76;97513.83;106931;1260;59198;-38
2023/11/26 07:03:43;;;;;;;17.10;11.50;;;;;;;0.43;74.97;97517.42;106949;1260;71797;-38
2023/11/26 07:06:11;;;;;;;22.10;11.10;;;;;;;0.42;75.42;97515.48;106937;1266;67630;-38
2023/11/26 07:08:41;;;;;;;17.00;10.90;;;;;;;0.41;75.26;97509.98;106926;1262;72666;-38
2023/11/26 07:11:18;;;;;;;17.10;10.40;;;;;;;0.41;75.48;97501.44;106980;1260;60880;-37
2023/11/26 07:13:47;;;;;;;16.40;9.40;;;;;;;0.48;75.28;97497.90;106977;1260;60005;-38
2023/11/26 07:16:20;;;;;;;13.70;9.40;;;;;;;0.52;75.27;97497.63;106221;1260;1002980;-38
2023/11/26 07:18:49;;;;;;;15.10;10.40;;;;;;;0.50;75.26;97492.47;106951;1260;66296;-37
2023/11/26 07:21:18;;;;;;;17.10;10.30;;;;;;;0.47;75.68;97491.98;106911;1263;72671;-38
2023/11/26 07:23:46;;;;;;;15.20;9.90;;;;;;;0.44;75.64;97490.39;106881;1263;59625;-38
2023/11/26 07:26:18;;;;;;;15.10;9.00;;;;;;;0.42;75.89;97490.00;106920;1260;59273;-38
2023/11/26 07:28:50;;;;;;;13.40;8.80;;;;;;;0.45;75.97;97485.86;106949;1260;71776;-38
2023/11/26 07:31:20;;;;;;;13.90;8.60;;;;;;;0.56;75.92;97477.91;106912;1260;66309;-38
2023/11/26 07:33:47;;;;;;;13.70;8.20;;;;;;;0.61;75.72;97475.02;106931;1260;72828;-38
2023/11/26 07:36:22;;;;;;;14.50;9.30;;;;;;;0.60;75.98;97471.47;106898;1260;59593;-38
2023/11/26 07:38:51;;;;;;;12.90;8.40;;;;;;;0.62;76.00;97467.11;106915;1260;59991;-38
2023/11/26 07:41:19;;;;;;;14.40;9.60;;;;;;;0.62;75.93;97461.12;106924;1262;73123;-38
2023/11/26 07:43:49;;;;;;;14.80;9.80;;;;;;;0.61;75.87;97457.56;106948;1267;67791;-37
2023/11/26 07:46:17;;;;;;;12.10;8.20;;;;;;;0.63;75.97;97461.66;106913;1263;72648;-37
2023/11/26 07:48:49;;;;;;;12.50;7.90;;;;;;;0.71;75.60;97462.04;106913;1268;59503;-37
2023/11/26 07:51:17;;;;;;;12.80;8.50;;;;;;;0.72;75.69;97468.86;106911;1260;60215;-38
2023/11/26 07:53:45;;;;;;;14.20;9.10;;;;;;;0.70;75.57;97466.80;106924;1261;73070;-37
2023/11/26 07:56:13;;;;;;;15.50;8.80;;;;;;;0.68;75.61;97467.35;106882;1260;67611;-37
2023/11/26 07:58:41;;;;;;;12.90;9.00;;;;;;;0.65;75.53;97471.25;106856;1263;71573;-37
2023/11/26 08:01:11;;;;;;;11.80;8.20;;;;;;;0.63;75.78;97469.43;106930;1260;60958;-37
2023/11/26 08:03:38;;;;;;;11.30;7.80;;;;;;;0.71;75.55;97470.63;106918;1266;60055;-37
2023/11/26 08:06:12;;;;;;;14.10;8.20;;;;;;;0.78;75.43;97476.86;106921;1261;73003;-37
2023/11/26 08:08:40;;;;;;;12.70;8.00;;;;;;;0.79;75.60;97481.61;106871;1260;67574;-37
2023/11/26 08:11:09;;;;;;;12.40;8.90;;;;;;;0.81;75.46;97484.79;106940;1260;71435;-37
2023/11/26 08:13:41;;;;;;;11.30;8.10;;;;;;;0.81;75.58;97480.20;106921;1262;59733;-37
2023/11/26 08:16:10;;;;;;;11.80;8.10;;;;;;;0.80;75.46;97474.23;106910;1260;60205;-37
2023/11/26 08:18:39;;;;;;;11.80;8.00;;;;;;;0.79;75.62;97461.93;106856;1260;73034;-38
2023/11/26 08:21:08;;;;;;;12.50;7.90;;;;;;;0.86;75.71;97454.18;106895;1260;67271;-37
2023/11/26 08:23:44;;;;;;;11.70;7.50;;;;;;;0.88;75.34;97448.23;107002;1260;72735;-39
2023/11/26 08:26:15;;;;;;;10.00;8.30;;;;;;;0.84;75.39;97444.69;106915;1263;59774;-37
2023/11/26 08:28:43;;;;;;;14.20;9.00;;;;;;;0.81;75.74;97443.49;106967;1260;59509;-37
2023/11/26 08:31:11;;;;;;;12.50;8.40;;;;;;;0.81;75.61;97442.23;106912;1260;73015;-37
2023/11/26 08:33:42;;;;;;;12.80;8.10;;;;;;;0.79;75.56;97441.59;106940;1260;66465;-37
2023/11/26 08:36:15;;;;;;;12.70;8.30;;;;;;;0.84;75.58;97438.90;106915;1262;72667;-38
2023/11/26 08:38:43;;;;;;;9.00;7.60;;;;;;;0.86;75.45;97431.66;106944;1260;59578;-37
2023/11/26 08:41:11;;;;;;;12.40;7.80;;;;;;;0.84;75.38;97432.05;106958;1266;59625;-38
2023/11/26 08:43:41;;;;;;;10.50;8.00;;;;;;;0.80;75.32;97435.38;106993;1260;73072;-38
2023/11/26 08:46:10;;;;;;;10.00;7.00;;;;;;;0.75;75.56;97431.14;106950;1260;66307;-38
2023/11/26 08:48:44;;;;;;;10.50;7.40;;;;;;;0.73;75.63;97429.70;106935;1263;72494;-38
2023/11/26 08:51:12;;;;;;;;;;;;;;;0.81;75.64;97425.64;106959;1260;59613;-38
2023/11/26 08:53:40;;;;;;;10.00;7.20;;;;;;;0.87;75.68;97417.95;106866;1260;59965;-37
2023/11/26 08:56:08;;;;;;;10.50;7.30;;;;;;;0.86;75.81;97414.04;106904;1260;73075;-37
2023/11/26 08:58:35;;;;;;;11.70;8.20;;;;;;;0.87;75.69;97414.14;106852;1260;68447;-37
2023/11/26 09:01:04;;;;;;;9.50;7.70;;;;;;;0.85;75.42;97408.69;106865;1260;72701;-37
2023/11/26 09:03:32;;;;;;;10.70;8.00;;;;;;;0.82;75.50;97404.79;106917;1263;59739;-37
2023/11/26 09:06:00;;;;;;;10.50;7.70;;;;;;;0.86;75.42;97399.33;106906;1260;60432;-37
2023/11/26 09:08:28;;;;;;;12.50;7.60;;;;;;;0.94;75.44;97396.10;106938;1260;73886;-37
2023/11/26 09:10:56;;;;;;;10.70;7.60;;;;;;;0.96;75.28;97380.88;106911;1260;67273;-37
2023/11/26 09:13:24;;;;;;;13.20;8.30;;;;;;;0.93;74.98;97371.59;106918;1263;71426;-37
2023/11/26 09:15:52;;;;;;;12.10;8.40;;;;;;;0.90;75.19;97359.49;106879;1263;60529;-37
2023/11/26 09:18:21;;;;;;;13.00;9.00;;;;;;;0.88;75.08;97352.58;106921;1260;60414;-37
2023/11/26 09:20:49;;;;;;;14.40;9.10;;;;;;;0.87;75.54;97344.71;106863;1260;73910;-37
2023/11/26 09:23:16;;;;;;;11.70;8.40;;;;;;;0.93;75.17;97347.20;106942;1260;67749;-37
2023/11/26 09:25:44;;;;;;;11.00;7.30;;;;;;;0.98;74.88;97343.28;106915;1263;72706;-37
2023/11/26 09:28:11;;;;;;;12.20;8.00;;;;;;;0.97;74.88;97339.90;106900;1262;60459;-37
2023/11/26 09:30:39;;;;;;;10.20;7.50;;;;;;;0.91;74.84;97336.94;106937;1260;60357;-37
2023/11/26 09:33:06;;;;;;;12.30;8.00;;;;;;;0.87;75.05;97333.96;106900;1261;73080;-37
2023/11/26 09:35:34;;;;;;;12.60;7.90;;;;;;;0.88;75.33;97327.42;106907;1265;66296;-37
2023/11/26 09:38:03;;;;;;;10.60;8.10;;;;;;;0.89;75.10;97325.23;106863;1262;71157;-38
2023/11/26 09:40:30;;;;;;;10.70;7.70;;;;;;;0.95;75.10;97319.66;106947;1263;60852;-37
2023/11/26 09:42:58;;;;;;;12.70;8.20;;;;;;;0.99;74.97;97318.09;106849;1260;60361;-37
2023/11/26 09:45:26;;;;;;;10.60;7.40;;;;;;;0.99;74.97;97317.69;105308;1260;1003749;-38
2023/11/26 09:47:53;;;;;;;11.40;7.90;;;;;;;0.96;75.05;97317.63;106899;1260;67785;-37
2023/11/26 09:50:22;;;;;;;10.50;8.00;;;;;;;0.95;75.19;97315.77;106948;1260;71427;-37
2023/11/26 09:52:49;;;;;;;9.60;6.80;;;;;;;0.94;75.04;97312.31;106891;1263;60446;-37
2023/11/26 09:55:18;;;;;;;9.30;6.60;;;;;;;0.95;74.57;97303.19;106845;1260;60352;-37
2023/11/26 09:57:45;;;;;;;10.10;7.00;;;;;;;0.96;74.64;97306.43;106919;1261;73882;-37
2023/11/26 10:00:16;;;;;;;10.00;6.90;;;;;;;0.94;74.77;97303.33;106937;1260;67563;-37
2023/11/26 10:02:44;;;;;;;11.70;7.50;;;;;;;0.93;74.80;97295.44;106965;1260;71133;-38
2023/11/26 10:05:25;;;;;;;11.60;7.30;;;;;;;0.92;74.75;97287.34;106937;1262;60520;-37
2023/11/26 10:07:54;;;;;;;9.40;6.80;;;;;;;0.89;74.61;97282.32;106238;1260;1002684;-37
2023/11/26 10:10:23;;;;;;;;;;;;;;;0.91;74.68;97277.80;106957;1261;73011;-38
2023/11/26 10:12:57;;;;;;;10.30;6.70;;;;;;;0.97;74.62;97277.10;107029;1266;67598;-38
2023/11/26 10:15:27;;;;;;;8.50;6.20;;;;;;;0.92;74.43;97276.98;106931;1260;72671;-38
2023/11/26 10:18:04;;;;;;;10.30;6.90;;;;;;;0.87;74.57;97276.27;106925;1260;60356;-38
2023/11/26 10:20:40;;;;;;;8.90;6.70;;;;;;;0.84;74.52;97280.93;106931;1260;59578;-38
2023/11/26 10:23:08;;;;;;;10.00;6.50;;;;;;;0.80;74.57;97275.57;106166;1260;1003831;-38
2023/11/26 10:25:43;;;;;;;8.90;6.50;;;;;;;0.77;74.52;97270.02;106937;1260;65872;-38
2023/11/26 10:28:14;;;;;;;8.70;6.10;;;;;;;0.86;74.53;97270.39;106892;1260;72735;-38
2023/11/26 10:30:42;;;;;;;8.40;6.50;;;;;;;0.96;74.03;97267.33;106942;1260;60846;-38
2023/11/26 10:33:11;;;;;;;7.90;6.00;;;;;;;0.95;73.59;97260.45;106909;1260;60405;-37
2023/11/26 10:35:45;;;;;;;11.10;6.80;;;;;;;0.89;73.54;97258.70;106910;1260;73966;-38
2023/11/26 10:38:12;;;;;;;11.70;6.70;;;;;;;0.84;73.56;97264.07;106924;1261;67718;-38
2023/11/26 10:40:41;;;;;;;8.70;6.80;;;;;;;0.78;73.59;97270.73;106923;1266;72714;-38
2023/11/26 10:43:09;;;;;;;10.50;7.00;;;;;;;0.73;73.67;97271.36;106920;1263;60861;-38
2023/11/26 10:45:38;;;;;;;11.40;7.00;;;;;;;0.78;73.68;97270.41;106896;1260;60546;-38
2023/11/26 10:48:10;;;;;;;9.20;6.30;;;;;;;0.84;73.34;97271.55;106940;1260;73885;-38
2023/11/26 10:50:53;;;;;;;9.50;6.90;;;;;;;0.83;73.43;97272.60;106900;1260;67570;-38
2023/11/26 10:53:30;;;;;;;11.80;7.40;;;;;;;0.82;73.50;97285.14;106920;1264;71787;-38
2023/11/26 10:56:00;;;;;;;8.70;5.40;;;;;;;0.83;73.46;97291.10;106906;1260;60328;-38
2023/11/26 10:58:28;;;;;;;9.00;6.80;;;;;;;0.82;73.47;97297.20;106800;1268;60540;-38
2023/11/26 11:00:58;;;;;;;11.80;7.10;;;;;;;0.82;73.53;97295.35;106911;1267;73829;-38
2023/11/26 11:03:27;;;;;;;;;;;;;;;0.83;73.24;97297.98;106970;1260;67065;-38
2023/11/26 11:05:56;;;;;;;9.50;6.70;;;;;;;0.87;73.14;97296.23;106913;1261;72657;-38
2023/11/26 11:08:27;;;;;;;9.30;6.80;;;;;;;0.86;73.14;97292.77;106797;1260;60328;-38
2023/11/26 11:11:26;;;;;;;9.40;6.50;;;;;;;0.81;73.08;97294.66;106911;1260;60517;-38
2023/11/26 11:13:53;;;;;;;13.00;7.20;;;;;;;0.77;73.16;97285.73;106949;1260;73889;-38
2023/11/26 11:16:21;;;;;;;11.10;6.80;;;;;;;0.75;73.05;97277.97;106936;1260;67622;-38
2023/11/26 11:18:48;;;;;;;9.80;6.40;;;;;;;0.71;73.25;97269.27;106944;1264;72687;-37
2023/11/26 11:21:18;;;;;;;8.60;6.70;;;;;;;0.70;73.26;97263.14;106921;1263;60853;-37
2023/11/26 11:23:46;;;;;;;8.80;5.80;;;;;;;0.74;72.96;97258.29;106986;1260;60382;-38
2023/11/26 11:26:15;;;;;;;9.90;5.90;;;;;;;0.77;72.87;97257.30;106933;1260;73848;-37
2023/11/26 11:28:50;;;;;;;8.80;6.20;;;;;;;0.77;73.08;97257.30;106966;1260;67758;-38
2023/11/26 11:31:21;;;;;;;9.80;6.40;;;;;;;0.75;72.86;97258.08;106997;1262;72685;-38
2023/11/26 11:34:12;;;;;;;11.40;7.00;;;;;;;0.73;73.03;97261.91;106868;1267;60443;-38